In Rescue
 
Open Full Screen Window  High Contrast Mode
Wind Gusting 21 knots
13
January 24, 2020 8:43 PM EST
Weather Information
Wind Direction
  080 °
Wind Speed
  13 kt (15 mph)
Wind Gust
  21 kt (24 mph)
Altimeter
29.88 in
Visibility
10 SM
Temperature
02° C
36° F
Dewpoint
-02° C
28° F
Humidity
75%
Sky Condition
Overcast @ 2,700 ft
Broken @ 2,100 ft
MVFR

METAR KCVX 250143Z AUTO 08013G21KT 10SM BKN021 OVC027 02/M02 A2988 RMK AO2 T00191019

FAA Disclaimer: The data displayed is for advisory purposes only and is not to be used for flight planning or operations.